Time;durP1;ratioP1;P1;durP2;ratioP2;P2;SDS_P1;SDS_P2;PMS_P1;PMS_P2;Temp;Humidity;BMP_temperature;BMP_pressure;BME280_temperature;BME280_humidity;BME280_pressure;Samples;Min_cycle;Max_cycle;Signal;HPM_P1;HPM_P2
2024/01/25 00:00:58;;;;;;;;;;;;;;;19.83;41.70;101046.19;2084703;28;6076;-74
2024/01/25 00:01:59;;;;;;;;;;;;;;;19.83;41.62;101057.69;2085352;28;2298;-74
2024/01/25 00:03:01;;;;;;;;;;;;;;;19.84;41.68;101064.94;2084751;28;2584;-74
2024/01/25 00:04:02;;;;;;;;;;;;;;;19.84;41.75;101052.72;2086676;28;1680;-74
2024/01/25 00:05:04;;;;;;;;;;;;;;;19.83;41.69;101062.69;2083273;28;2380;-74
2024/01/25 00:06:07;;;;;;;;;;;;;;;19.83;41.71;101056.94;2084963;28;2650;-74
2024/01/25 00:07:09;;;;;;;;;;;;;;;19.82;41.46;101049.72;2084744;28;2341;-74
2024/01/25 00:08:11;;;;;;;;;;;;;;;19.83;41.58;101074.19;2088676;28;1672;-73
2024/01/25 00:09:12;;;;;;;;;;;;;;;19.82;41.67;101069.84;2088313;28;1740;-74
2024/01/25 00:10:15;;;;;;;;;;;;;;;19.82;41.66;101069.84;2086765;28;1842;-74
2024/01/25 00:11:17;;;;;;;;;;;;;;;19.82;41.66;101072.72;2086557;28;2055;-74
2024/01/25 00:12:18;;;;;;;;;;;;;;;19.80;41.67;101063.97;2087781;28;1613;-73
2024/01/25 00:13:19;;;;;;;;;;;;;;;19.80;41.63;101066.84;2084297;28;2103;-74
2024/01/25 00:14:21;;;;;;;;;;;;;;;19.80;41.62;101078.34;2087010;28;1589;-74
2024/01/25 00:15:22;;;;;;;;;;;;;;;19.80;41.57;101070.47;2084357;28;2426;-74
2024/01/25 00:16:24;;;;;;;;;;;;;;;19.80;41.40;101076.22;2086429;28;2318;-73
2024/01/25 00:17:25;;;;;;;;;;;;;;;19.81;41.58;101076.94;2084360;28;2318;-74
2024/01/25 00:18:28;;;;;;;;;;;;;;;19.81;41.63;101074.09;2080985;28;2282;-74
2024/01/25 00:19:30;;;;;;;;;;;;;;;19.80;41.63;101056.09;2084958;28;2411;-74
2024/01/25 00:20:31;;;;;;;;;;;;;;;19.79;41.56;101056.72;2085502;28;2823;-74
2024/01/25 00:21:33;;;;;;;;;;;;;;;19.79;41.65;101074.75;2083629;28;2330;-74
2024/01/25 00:22:34;;;;;;;;;;;;;;;19.79;41.71;101065.34;2087460;28;2413;-74
2024/01/25 00:23:36;;;;;;;;;;;;;;;19.79;41.69;101056.72;2087468;28;2409;-74
2024/01/25 00:24:37;;;;;;;;;;;;;;;19.77;41.67;101071.00;2088347;28;2344;-74
2024/01/25 00:25:39;;;;;;;;;;;;;;;19.76;41.57;101066.63;2086282;28;2098;-73
2024/01/25 00:26:40;;;;;;;;;;;;;;;19.77;41.54;101071.00;2088307;28;1586;-75
2024/01/25 00:27:44;;;;;;;;;;;;;;;19.77;41.51;101071.00;2086948;28;1668;-74
2024/01/25 00:28:46;;;;;;;;;;;;;;;19.77;41.59;101071.00;2084721;28;1550;-74
2024/01/25 00:29:47;;;;;;;;;;;;;;;19.77;41.62;101079.59;2086884;28;2200;-73
2024/01/25 00:30:48;;;;;;;;;;;;;;;19.76;41.60;101070.25;2085915;28;6233;-74
2024/01/25 00:31:50;;;;;;;;;;;;;;;19.76;41.57;101076.00;2087459;28;1630;-74
2024/01/25 00:32:51;;;;;;;;;;;;;;;19.76;41.58;101081.00;2086800;28;2369;-74
2024/01/25 00:33:53;;;;;;;;;;;;;;;19.76;41.59;101081.00;2081840;28;2206;-74
2024/01/25 00:34:55;;;;;;;;;;;;;;;19.75;41.63;101079.53;2086005;28;2272;-75
2024/01/25 00:35:56;;;;;;;;;;;;;;;19.75;41.59;101088.16;2083100;28;2277;-74
2024/01/25 00:36:58;;;;;;;;;;;;;;;19.75;41.63;101088.16;2082764;28;2278;-74
2024/01/25 00:38:00;;;;;;;;;;;;;;;19.74;41.52;101096.00;2084863;28;2313;-74
2024/01/25 00:39:03;;;;;;;;;;;;;;;19.75;41.63;101096.78;2087341;28;2402;-74
2024/01/25 00:40:04;;;;;;;;;;;;;;;19.75;41.62;101088.88;2088974;28;1753;-73
2024/01/25 00:41:06;;;;;;;;;;;;;;;19.75;41.48;101093.91;2088059;28;1739;-74
2024/01/25 00:42:07;;;;;;;;;;;;;;;19.75;41.54;101088.16;2092742;28;1624;-74
2024/01/25 00:43:09;;;;;;;;;;;;;;;19.75;41.61;101096.78;2095517;28;1914;-74
2024/01/25 00:44:10;;;;;;;;;;;;;;;19.74;41.58;101116.13;2088299;28;2144;-74
2024/01/25 00:45:12;;;;;;;;;;;;;;;19.75;41.42;101102.50;2083706;28;2412;-74
2024/01/25 00:46:14;;;;;;;;;;;;;;;19.73;41.61;101097.41;2086116;28;2398;-74
2024/01/25 00:47:15;;;;;;;;;;;;;;;19.72;41.47;101101.63;2085331;28;2272;-73
2024/01/25 00:48:16;;;;;;;;;;;;;;;19.73;41.62;101105.28;2084564;28;2039;-74
2024/01/25 00:49:18;;;;;;;;;;;;;;;19.73;41.62;101093.78;2084403;28;1866;-74
2024/01/25 00:50:21;;;;;;;;;;;;;;;19.72;41.50;101092.28;2088464;28;1538;-74
2024/01/25 00:51:23;;;;;;;;;;;;;;;19.70;41.62;101095.03;2085189;28;2305;-74
2024/01/25 00:52:24;;;;;;;;;;;;;;;19.70;41.64;101104.44;2083178;28;2708;-74
2024/01/25 00:53:26;;;;;;;;;;;;;;;19.71;41.67;101105.16;2083561;28;2295;-74
2024/01/25 00:54:27;;;;;;;;;;;;;;;19.70;41.64;101110.19;2084418;28;2297;-74
2024/01/25 00:55:29;;;;;;;;;;;;;;;19.68;41.50;101121.53;2084369;28;2286;-74
2024/01/25 00:56:31;;;;;;;;;;;;;;;19.69;41.48;101117.28;2082777;28;2336;-74
2024/01/25 00:57:32;;;;;;;;;;;;;;;19.69;41.60;101116.56;2082848;28;2329;-74
2024/01/25 00:58:34;;;;;;;;;;;;;;;19.70;41.49;101118.03;2088031;28;1609;-74
2024/01/25 00:59:35;;;;;;;;;;;;;;;19.68;41.63;101124.41;2084858;28;2265;-74
2024/01/25 01:00:37;;;;;;;;;;;;;;;19.69;41.56;101134.53;2087265;28;6430;-74
2024/01/25 01:01:38;;;;;;;;;;;;;;;19.69;41.42;101122.28;2084060;28;2418;-74
2024/01/25 01:02:41;;;;;;;;;;;;;;;19.69;41.43;101125.16;2084265;28;2416;-74
2024/01/25 01:03:43;;;;;;;;;;;;;;;19.67;41.64;101138.00;2081440;28;2285;-74
2024/01/25 01:04:45;;;;;;;;;;;;;;;19.67;41.60;101143.75;2084544;28;2577;-72
2024/01/25 01:05:49;;;;;;;;;;;;;;;19.66;41.56;101132.91;2083778;28;2355;-74
2024/01/25 01:06:50;;;;;;;;;;;;;;;19.66;41.52;101148.00;2084620;28;2317;-74
2024/01/25 01:07:52;;;;;;;;;;;;;;;19.65;41.47;101152.28;2085813;28;2308;-74
2024/01/25 01:08:53;;;;;;;;;;;;;;;19.66;41.41;101142.25;2087931;28;1730;-74
2024/01/25 01:09:55;;;;;;;;;;;;;;;19.66;41.47;101133.66;2087534;28;2337;-74
2024/01/25 01:10:56;;;;;;;;;;;;;;;19.66;41.50;101144.41;2086272;28;1665;-74
2024/01/25 01:11:58;;;;;;;;;;;;;;;19.64;41.62;101153.66;2083232;28;1661;-74
2024/01/25 01:12:59;;;;;;;;;;;;;;;19.63;41.60;101155.03;2081381;28;2112;-75
2024/01/25 01:14:01;;;;;;;;;;;;;;;19.64;41.51;101156.53;2085704;28;1733;-74
2024/01/25 01:15:03;;;;;;;;;;;;;;;19.64;41.55;101153.66;2087955;28;2171;-74
2024/01/25 01:16:05;;;;;;;;;;;;;;;19.64;41.44;101159.41;2082638;28;2249;-73
2024/01/25 01:17:06;;;;;;;;;;;;;;;19.64;41.48;101168.00;2084731;28;1739;-75
2024/01/25 01:18:08;;;;;;;;;;;;;;;19.63;41.44;101169.41;2086178;28;1614;-74
2024/01/25 01:19:09;;;;;;;;;;;;;;;19.64;41.42;101167.28;2085030;28;2281;-74
2024/01/25 01:20:11;;;;;;;;;;;;;;;19.63;41.45;101171.50;2083564;28;2349;-74
2024/01/25 01:21:12;;;;;;;;;;;;;;;19.62;41.47;101176.53;2083090;28;2312;-73
2024/01/25 01:22:14;;;;;;;;;;;;;;;19.62;41.42;101162.16;2085245;28;2560;-74
2024/01/25 01:23:15;;;;;;;;;;;;;;;19.63;41.33;101160.03;2081797;28;2345;-74
2024/01/25 01:24:17;;;;;;;;;;;;;;;19.62;41.32;101161.41;2084202;28;2366;-74
2024/01/25 01:25:18;;;;;;;;;;;;;;;19.61;41.44;101152.06;2086440;28;2289;-74
2024/01/25 01:26:20;;;;;;;;;;;;;;;19.62;41.20;101165.03;2083509;28;2409;-74
2024/01/25 01:27:21;;;;;;;;;;;;;;;19.61;41.38;101160.69;2085020;28;2542;-74
2024/01/25 01:28:22;;;;;;;;;;;;;;;19.61;41.39;101159.94;2081430;28;2270;-74
2024/01/25 01:29:24;;;;;;;;;;;;;;;19.61;41.32;101157.06;2085023;28;2290;-74
2024/01/25 01:30:25;;;;;;;;;;;;;;;19.61;41.44;101169.28;2083675;28;6074;-73
2024/01/25 01:31:27;;;;;;;;;;;;;;;19.61;41.33;101169.28;2084192;28;2305;-74
2024/01/25 01:32:28;;;;;;;;;;;;;;;19.60;41.49;101178.53;2085444;28;2042;-74
2024/01/25 01:33:30;;;;;;;;;;;;;;;19.60;41.37;101184.28;2087705;28;2010;-74
2024/01/25 01:34:31;;;;;;;;;;;;;;;19.60;41.37;101172.78;2086746;28;1691;-74
2024/01/25 01:35:33;;;;;;;;;;;;;;;19.59;41.50;101166.31;2086274;28;2336;-74
2024/01/25 01:36:35;;;;;;;;;;;;;;;19.58;41.47;101170.53;2084825;28;1721;-74
2024/01/25 01:37:36;;;;;;;;;;;;;;;19.58;41.41;101173.41;2086464;28;1936;-74
2024/01/25 01:38:37;;;;;;;;;;;;;;;19.60;41.38;101185.03;2087444;28;1645;-74
2024/01/25 01:39:39;;;;;;;;;;;;;;;19.58;41.41;101176.28;2083949;28;1555;-74
2024/01/25 01:40:40;;;;;;;;;;;;;;;19.59;41.41;101188.53;2084207;28;1678;-75
2024/01/25 01:41:42;;;;;;;;;;;;;;;19.59;41.30;101183.53;2085039;28;1859;-74
2024/01/25 01:42:43;;;;;;;;;;;;;;;19.59;41.40;101194.28;2084275;28;2603;-74
2024/01/25 01:43:45;;;;;;;;;;;;;;;19.59;41.25;101174.19;2085362;28;2269;-75
2024/01/25 01:44:46;;;;;;;;;;;;;;;19.57;41.38;101185.56;2083759;28;2008;-74
2024/01/25 01:45:48;;;;;;;;;;;;;;;19.56;41.41;101190.56;2085713;28;2278;-74
2024/01/25 01:46:50;;;;;;;;;;;;;;;19.57;41.45;101186.31;2087272;28;1606;-72
2024/01/25 01:47:51;;;;;;;;;;;;;;;19.57;41.33;101185.56;2087085;28;2113;-74
2024/01/25 01:48:53;;;;;;;;;;;;;;;19.57;41.25;101197.06;2084424;28;2130;-74
2024/01/25 01:49:55;;;;;;;;;;;;;;;19.57;41.29;101188.44;2088149;28;1662;-74
2024/01/25 01:50:56;;;;;;;;;;;;;;;19.56;41.25;101196.31;2086903;28;2089;-74
2024/01/25 01:51:58;;;;;;;;;;;;;;;19.57;41.25;101191.31;2084967;28;2305;-74
2024/01/25 01:52:59;;;;;;;;;;;;;;;19.56;41.28;101190.56;2084146;28;2628;-74
2024/01/25 01:54:02;;;;;;;;;;;;;;;19.56;41.16;101190.56;2085092;28;2743;-74
2024/01/25 01:55:04;;;;;;;;;;;;;;;19.56;41.32;101181.94;2084295;28;2335;-74
2024/01/25 01:56:05;;;;;;;;;;;;;;;19.57;41.28;101202.78;2086442;28;2339;-74
2024/01/25 01:57:07;;;;;;;;;;;;;;;19.55;41.19;101189.06;2084426;28;2402;-74
2024/01/25 01:58:08;;;;;;;;;;;;;;;19.55;41.29;101194.81;2083692;28;2409;-74
2024/01/25 01:59:10;;;;;;;;;;;;;;;19.55;41.29;101188.31;2086037;28;2625;-74
2024/01/25 02:00:12;;;;;;;;;;;;;;;19.55;41.22;101191.19;2086328;28;6252;-74
2024/01/25 02:01:13;;;;;;;;;;;;;;;19.54;41.17;101178.97;2087977;28;2117;-74
2024/01/25 02:02:15;;;;;;;;;;;;;;;19.55;41.18;101188.31;2084914;28;1876;-74
2024/01/25 02:03:16;;;;;;;;;;;;;;;19.54;41.27;101190.44;2082014;28;2246;-74
2024/01/25 02:04:18;;;;;;;;;;;;;;;19.55;41.22;101182.56;2084210;28;1914;-74
2024/01/25 02:05:19;;;;;;;;;;;;;;;19.54;41.13;101187.59;2083736;28;2139;-74
2024/01/25 02:06:21;;;;;;;;;;;;;;;19.52;41.18;101196.09;2086806;28;1875;-74
2024/01/25 02:07:23;;;;;;;;;;;;;;;19.53;41.22;101180.31;2081360;28;2369;-74
2024/01/25 02:08:25;;;;;;;;;;;;;;;19.53;41.22;101191.81;2085707;28;2332;-74
2024/01/25 02:09:27;;;;;;;;;;;;;;;19.53;41.17;101186.06;2080150;28;2453;-74
2024/01/25 02:10:29;;;;;;;;;;;;;;;19.52;41.29;101190.34;2084654;28;2309;-74
2024/01/25 02:11:30;;;;;;;;;;;;;;;19.53;41.21;101168.84;2082906;28;2154;-74
2024/01/25 02:12:32;;;;;;;;;;;;;;;19.53;41.09;101196.81;2084906;28;2281;-74
2024/01/25 02:13:33;;;;;;;;;;;;;;;19.51;41.23;101188.84;2085011;28;2329;-74
2024/01/25 02:14:35;;;;;;;;;;;;;;;19.51;41.18;101194.56;2080879;28;2392;-74
2024/01/25 02:15:36;;;;;;;;;;;;;;;19.51;41.25;101188.84;2083567;28;2250;-74
2024/01/25 02:16:38;;;;;;;;;;;;;;;19.50;41.15;101189.47;2085705;28;2341;-74
2024/01/25 02:17:39;;;;;;;;;;;;;;;19.50;41.17;101195.97;2082574;28;2396;-74
2024/01/25 02:18:41;;;;;;;;;;;;;;;19.50;41.22;101187.34;2086712;28;2364;-74
2024/01/25 02:19:42;;;;;;;;;;;;;;;19.49;41.31;101191.59;2084127;28;2612;-74
2024/01/25 02:20:44;;;;;;;;;;;;;;;19.49;41.09;101185.84;2082845;28;2433;-74
2024/01/25 02:21:45;;;;;;;;;;;;;;;19.50;41.20;101193.09;2085516;28;2453;-73
2024/01/25 02:22:47;;;;;;;;;;;;;;;19.49;41.18;101197.34;2086041;28;2125;-74
2024/01/25 02:23:49;;;;;;;;;;;;;;;19.48;41.01;101184.38;2084589;28;2341;-74
2024/01/25 02:24:51;;;;;;;;;;;;;;;19.48;41.21;101183.63;2081631;28;2446;-74
2024/01/25 02:25:52;;;;;;;;;;;;;;;19.49;41.11;101190.84;2081378;28;2326;-74
2024/01/25 02:26:54;;;;;;;;;;;;;;;19.48;41.08;101195.09;2082777;28;2238;-74
2024/01/25 02:27:55;;;;;;;;;;;;;;;19.48;41.10;101195.84;2084188;28;2297;-74
2024/01/25 02:28:57;;;;;;;;;;;;;;;19.47;41.09;101171.41;2080565;28;2937;-74
2024/01/25 02:29:59;;;;;;;;;;;;;;;19.47;41.11;101177.13;2078229;28;2269;-74
2024/01/25 02:31:25;;;;;;;;;;;;;;;19.47;41.03;101185.75;2082226;28;6268;-74
2024/01/25 02:32:52;;;;;;;;;;;;;;;19.47;41.16;101177.13;2084829;28;2273;-74
2024/01/25 02:34:19;;;;;;;;;;;;;;;19.47;41.11;101177.13;2083351;28;2293;-74
2024/01/25 02:35:45;;;;;;;;;;;;;;;19.46;41.11;101181.38;2085197;28;1797;-73
2024/01/25 02:37:14;;;;;;;;;;;;;;;19.46;41.04;101182.13;2085269;28;2059;-74
2024/01/25 02:38:40;;;;;;;;;;;;;;;19.45;41.06;101185.63;2082766;28;2213;-73
2024/01/25 02:40:08;;;;;;;;;;;;;;;19.44;41.08;101179.13;2083793;28;2063;-74
2024/01/25 02:41:34;;;;;;;;;;;;;;;19.44;41.06;101178.38;2079963;28;1937;-74
2024/01/25 02:43:02;;;;;;;;;;;;;;;19.45;41.06;101174.16;2083362;28;2384;-74
2024/01/25 02:44:29;;;;;;;;;;;;;;;19.43;40.97;101166.16;2083728;28;2317;-74
2024/01/25 02:45:56;;;;;;;;;;;;;;;19.43;41.09;101162.56;2081702;28;2456;-74
2024/01/25 02:47:23;;;;;;;;;;;;;;;19.44;40.97;101169.78;2083063;28;2299;-74
2024/01/25 02:48:50;;;;;;;;;;;;;;;19.44;40.87;101166.91;2085429;28;2210;-74
2024/01/25 02:50:17;;;;;;;;;;;;;;;19.45;40.81;101162.66;2087633;28;1734;-74
2024/01/25 02:51:45;;;;;;;;;;;;;;;19.44;40.92;101169.78;2084851;28;2069;-74
2024/01/25 02:53:12;;;;;;;;;;;;;;;19.44;40.99;101166.91;2084772;28;2080;-74
2024/01/25 02:54:39;;;;;;;;;;;;;;;19.43;40.90;101165.41;2079533;28;2289;-74
2024/01/25 02:56:06;;;;;;;;;;;;;;;19.42;40.85;101175.41;2084564;28;2352;-74
2024/01/25 02:57:33;;;;;;;;;;;;;;;19.42;40.93;101173.28;2084078;28;2351;-74
2024/01/25 02:59:00;;;;;;;;;;;;;;;19.42;40.99;101169.66;2083961;28;2333;-74
2024/01/25 03:00:27;;;;;;;;;;;;;;;19.42;40.88;101175.41;2082182;28;6384;-74
2024/01/25 03:01:54;;;;;;;;;;;;;;;19.40;40.90;101178.94;2085346;28;2435;-74
2024/01/25 03:03:23;;;;;;;;;;;;;;;19.40;40.86;101187.53;2084268;28;2356;-74
2024/01/25 03:04:50;;;;;;;;;;;;;;;19.40;40.82;101183.91;2082640;28;2313;-74
2024/01/25 03:06:16;;;;;;;;;;;;;;;19.38;40.98;101163.72;2083271;28;2383;-74
2024/01/25 03:07:44;;;;;;;;;;;;;;;19.37;40.93;101179.44;2085638;28;2276;-74
2024/01/25 03:09:10;;;;;;;;;;;;;;;19.40;40.81;101181.03;2083885;28;2356;-74
2024/01/25 03:10:38;;;;;;;;;;;;;;;19.39;40.90;101176.69;2082393;28;2294;-74
2024/01/25 03:12:05;;;;;;;;;;;;;;;19.39;40.88;101193.91;2083581;28;2439;-74
2024/01/25 03:13:31;;;;;;;;;;;;;;;19.39;40.83;101165.19;2084308;28;2305;-74
2024/01/25 03:14:59;;;;;;;;;;;;;;;19.38;40.89;101187.44;2083949;28;2310;-74
2024/01/25 03:16:26;;;;;;;;;;;;;;;19.37;40.88;101197.41;2083382;28;2285;-74
2024/01/25 03:17:53;;;;;;;;;;;;;;;19.39;40.89;101185.28;2080387;28;2281;-74
2024/01/25 03:19:19;;;;;;;;;;;;;;;19.37;40.87;101180.19;2082046;28;2331;-74
2024/01/25 03:20:46;;;;;;;;;;;;;;;19.36;40.81;101192.31;2082539;28;2007;-73
2024/01/25 03:22:13;;;;;;;;;;;;;;;19.34;40.86;101181.44;2082852;28;2273;-74
2024/01/25 03:23:40;;;;;;;;;;;;;;;19.37;40.96;101185.19;2082856;28;2399;-73
2024/01/25 03:25:08;;;;;;;;;;;;;;;19.36;40.77;101180.81;2083674;28;2356;-73
2024/01/25 03:26:36;;;;;;;;;;;;;;;19.34;40.83;101187.19;2087942;28;2051;-73
2024/01/25 03:28:03;;;;;;;;;;;;;;;19.33;40.78;101179.19;2084888;28;2071;-74
2024/01/25 03:29:29;;;;;;;;;;;;;;;19.33;40.72;101168.47;2085572;28;1685;-73
2024/01/25 03:30:57;;;;;;;;;;;;;;;19.33;40.72;101191.44;2083478;28;6684;-74
2024/01/25 03:32:23;;;;;;;;;;;;;;;19.34;40.78;101186.47;2081145;28;2337;-73
2024/01/25 03:33:50;;;;;;;;;;;;;;;19.33;40.66;101196.44;2085389;28;2058;-74
2024/01/25 03:35:17;;;;;;;;;;;;;;;19.33;40.70;101185.69;2080537;28;2079;-73
2024/01/25 03:36:43;;;;;;;;;;;;;;;19.33;40.57;101196.44;2081533;28;1663;-73
2024/01/25 03:38:10;;;;;;;;;;;;;;;19.34;40.62;101212.31;2084607;28;2018;-73
2024/01/25 03:39:37;;;;;;;;;;;;;;;19.33;40.74;101200.03;2085301;28;1717;-74
2024/01/25 03:41:04;;;;;;;;;;;;;;;19.33;40.74;101207.91;2082738;28;2378;-74
2024/01/25 03:42:31;;;;;;;;;;;;;;;19.33;40.76;101214.41;2081480;28;2717;-73
2024/01/25 03:43:58;;;;;;;;;;;;;;;19.35;40.66;101210.91;2085468;28;2556;-74
2024/01/25 03:45:24;;;;;;;;;;;;;;;19.33;40.72;101225.16;2082613;28;2289;-75
2024/01/25 03:46:51;;;;;;;;;;;;;;;19.33;40.69;101239.50;2082544;28;2344;-75
2024/01/25 03:48:18;;;;;;;;;;;;;;;19.33;40.66;101210.78;2081890;28;2277;-76
2024/01/25 03:49:45;;;;;;;;;;;;;;;19.31;40.60;101227.91;2083562;28;2337;-76
2024/01/25 03:51:11;;;;;;;;;;;;;;;19.31;40.47;101222.94;2084595;28;2314;-73
2024/01/25 03:52:38;;;;;;;;;;;;;;;19.32;40.41;101226.53;2081787;28;2303;-73
2024/01/25 03:54:05;;;;;;;;;;;;;;;19.31;40.64;101211.44;2082871;28;2297;-73
2024/01/25 03:55:32;;;;;;;;;;;;;;;19.32;40.58;101223.66;2083252;28;2265;-73
2024/01/25 03:57:00;;;;;;;;;;;;;;;19.30;40.61;101209.94;2086079;28;2086;-74
2024/01/25 03:58:26;;;;;;;;;;;;;;;19.32;40.62;101212.19;2084018;28;2342;-73
2024/01/25 03:59:53;;;;;;;;;;;;;;;19.32;40.60;101206.44;2085059;28;2211;-73
2024/01/25 04:01:21;;;;;;;;;;;;;;;19.33;40.55;101190.69;2081695;28;6261;-73
2024/01/25 04:02:47;;;;;;;;;;;;;;;19.32;40.66;101206.44;2083122;28;2398;-76
2024/01/25 04:04:15;;;;;;;;;;;;;;;19.33;40.68;101202.19;2081927;28;2298;-73
2024/01/25 04:05:41;;;;;;;;;;;;;;;19.35;40.59;101205.16;2083850;28;2384;-73
2024/01/25 04:07:08;;;;;;;;;;;;;;;19.36;40.53;101212.41;2082709;28;2429;-73
2024/01/25 04:08:35;;;;;;;;;;;;;;;19.37;40.66;101216.78;2082764;28;2390;-73
2024/01/25 04:10:03;;;;;;;;;;;;;;;19.39;40.61;101208.28;2087040;28;1983;-73
2024/01/25 04:11:30;;;;;;;;;;;;;;;19.39;40.79;101216.88;2086790;28;2057;-73
2024/01/25 04:12:57;;;;;;;;;;;;;;;19.39;40.72;101211.88;2083495;28;2400;-74
2024/01/25 04:14:24;;;;;;;;;;;;;;;19.41;40.77;101214.13;2083071;28;2218;-73
2024/01/25 04:15:50;;;;;;;;;;;;;;;19.41;40.90;101205.50;2082618;28;2268;-73
2024/01/25 04:17:17;;;;;;;;;;;;;;;19.41;40.79;101199.78;2082657;28;2349;-73
2024/01/25 04:18:44;;;;;;;;;;;;;;;19.41;40.60;101208.38;2083111;28;2319;-73
2024/01/25 04:20:11;;;;;;;;;;;;;;;19.43;40.77;101220.00;2083294;28;2277;-72
2024/01/25 04:21:39;;;;;;;;;;;;;;;19.42;40.85;101216.38;2086216;28;2293;-74
2024/01/25 04:23:05;;;;;;;;;;;;;;;19.42;40.94;101218.47;2082921;28;2218;-72
2024/01/25 04:24:33;;;;;;;;;;;;;;;19.42;40.83;101233.59;2085737;28;2451;-74
2024/01/25 04:26:00;;;;;;;;;;;;;;;19.42;40.88;101233.59;2083933;28;2105;-72
2024/01/25 04:27:28;;;;;;;;;;;;;;;19.42;40.91;101232.84;2083864;28;2045;-74
2024/01/25 04:28:55;;;;;;;;;;;;;;;19.43;41.08;101257.31;2083376;28;2331;-74
2024/01/25 04:30:22;;;;;;;;;;;;;;;19.43;41.17;101252.31;2081655;28;6501;-73
2024/01/25 04:31:49;;;;;;;;;;;;;;;19.43;41.07;101257.31;2082303;28;2316;-74
2024/01/25 04:33:15;;;;;;;;;;;;;;;19.44;41.13;101253.81;2084113;28;2317;-75
2024/01/25 04:34:43;;;;;;;;;;;;;;;19.45;41.10;101257.44;2081816;28;2445;-76
2024/01/25 04:36:09;;;;;;;;;;;;;;;19.46;40.96;101256.78;2084843;28;2257;-76
2024/01/25 04:37:36;;;;;;;;;;;;;;;19.48;41.13;101259.03;2085287;28;2226;-76
2024/01/25 04:39:02;;;;;;;;;;;;;;;19.49;41.11;101254.03;2082946;28;2521;-73
2024/01/25 04:40:30;;;;;;;;;;;;;;;19.50;40.99;101270.66;2085341;28;2262;-74
2024/01/25 04:41:56;;;;;;;;;;;;;;;19.50;41.06;101273.53;2083941;28;2359;-74
2024/01/25 04:43:24;;;;;;;;;;;;;;;19.50;41.03;101279.25;2084123;28;2333;-73
2024/01/25 04:44:51;;;;;;;;;;;;;;;19.50;41.10;101262.03;2084899;28;2396;-73
2024/01/25 04:46:17;;;;;;;;;;;;;;;19.50;41.13;101256.28;2083048;28;1729;-74
2024/01/25 04:47:45;;;;;;;;;;;;;;;19.49;41.22;101254.78;2088134;28;1638;-74
2024/01/25 04:49:11;;;;;;;;;;;;;;;19.50;41.25;101238.31;2083816;28;2391;-73
2024/01/25 04:50:39;;;;;;;;;;;;;;;19.50;41.12;101256.28;2084799;28;2334;-73
2024/01/25 04:52:06;;;;;;;;;;;;;;;19.48;41.35;101267.66;2086894;28;2289;-74
2024/01/25 04:53:32;;;;;;;;;;;;;;;19.50;41.21;101279.25;2104281;28;1742;-73
2024/01/25 04:54:59;;;;;;;;;;;;;;;19.50;41.30;101296.50;2087602;28;1872;-73
2024/01/25 04:56:26;;;;;;;;;;;;;;;19.49;41.31;101297.88;2083695;28;2365;-73
2024/01/25 04:57:54;;;;;;;;;;;;;;;19.50;41.35;101299.38;2083094;28;2165;-73
2024/01/25 04:59:21;;;;;;;;;;;;;;;19.50;41.10;101302.25;2086776;28;2229;-73
2024/01/25 05:00:48;;;;;;;;;;;;;;;19.51;41.29;101297.25;2084584;28;6105;-62
2024/01/25 05:02:14;;;;;;;;;;;;;;;19.50;41.33;101305.13;2086046;28;2063;-64
2024/01/25 05:03:41;;;;;;;;;;;;;;;19.50;41.31;101296.50;2085216;28;1819;-64
2024/01/25 05:05:08;;;;;;;;;;;;;;;19.51;41.26;101302.97;2087593;28;1670;-64
2024/01/25 05:06:36;;;;;;;;;;;;;;;19.52;41.30;101304.50;2081476;28;2489;-64
2024/01/25 05:08:03;;;;;;;;;;;;;;;19.49;41.26;101295.00;2085406;28;2326;-64
2024/01/25 05:09:30;;;;;;;;;;;;;;;19.52;41.27;101299.50;2082206;28;2344;-63
2024/01/25 05:10:57;;;;;;;;;;;;;;;19.53;41.29;101303.84;2083569;28;2432;-64
2024/01/25 05:12:24;;;;;;;;;;;;;;;19.53;41.26;101318.22;2083024;28;2267;-64
2024/01/25 05:13:51;;;;;;;;;;;;;;;19.54;41.35;101316.84;2083684;28;2285;-64
2024/01/25 05:15:18;;;;;;;;;;;;;;;19.55;41.26;101303.97;2084792;28;2309;-64
2024/01/25 05:16:45;;;;;;;;;;;;;;;19.54;41.43;101308.22;2086442;28;1713;-64
2024/01/25 05:18:13;;;;;;;;;;;;;;;19.55;41.28;101312.56;2084307;28;1724;-64
2024/01/25 05:19:39;;;;;;;;;;;;;;;19.55;41.37;101309.72;2083974;28;1749;-64
2024/01/25 05:21:06;;;;;;;;;;;;;;;19.55;41.25;101314.72;2083266;28;2176;-64
2024/01/25 05:22:39;;;;;;;;;;;;;;;19.56;41.29;101316.97;2083173;28;2508;-64
2024/01/25 05:24:07;;;;;;;;;;;;;;;19.56;41.27;101321.94;2086641;28;2365;-64
2024/01/25 05:25:34;;;;;;;;;;;;;;;19.55;41.41;101309.72;2086490;28;2125;-64
2024/01/25 05:27:02;;;;;;;;;;;;;;;19.55;41.44;101321.19;2083703;28;2147;-64
2024/01/25 05:28:28;;;;;;;;;;;;;;;19.54;41.37;101316.84;2085455;28;1662;-64
2024/01/25 05:29:55;;;;;;;;;;;;;;;19.54;41.47;101318.94;2083090;28;1835;-64
2024/01/25 05:31:22;;;;;;;;;;;;;;;19.54;41.39;101322.59;2083529;28;6078;-64
2024/01/25 05:32:50;;;;;;;;;;;;;;;19.55;41.29;101321.19;2085686;28;1825;-64
2024/01/25 05:34:16;;;;;;;;;;;;;;;19.55;41.40;101329.81;2083324;28;1852;-63
2024/01/25 05:35:43;;;;;;;;;;;;;;;19.54;41.43;101325.47;2082614;28;2287;-63
2024/01/25 05:37:11;;;;;;;;;;;;;;;19.54;41.47;101316.84;2083566;28;2360;-63
2024/01/25 05:38:37;;;;;;;;;;;;;;;19.55;41.29;101332.69;2083737;28;2297;-64
2024/01/25 05:40:05;;;;;;;;;;;;;;;19.56;41.41;101328.44;2083059;28;2000;-64
2024/01/25 05:41:31;;;;;;;;;;;;;;;19.57;41.36;101340.69;2098776;28;2471;-63
2024/01/25 05:42:57;;;;;;;;;;;;;;;19.57;41.45;101332.81;2086380;28;2270;-64
2024/01/25 05:44:25;;;;;;;;;;;;;;;19.58;41.43;101334.28;2085837;28;2353;-64
2024/01/25 05:45:51;;;;;;;;;;;;;;;19.58;41.44;101348.66;2081742;28;2433;-64
2024/01/25 05:47:19;;;;;;;;;;;;;;;19.59;41.39;101363.78;2084950;28;2285;-64
2024/01/25 05:48:45;;;;;;;;;;;;;;;19.58;41.30;101365.88;2082547;28;1703;-64
2024/01/25 05:50:12;;;;;;;;;;;;;;;19.60;41.39;101368.88;2083890;28;1681;-64
2024/01/25 05:51:39;;;;;;;;;;;;;;;19.61;41.45;101376.13;2082517;28;2373;-64
2024/01/25 05:53:07;;;;;;;;;;;;;;;19.61;41.40;101372.53;2084344;28;2394;-64
2024/01/25 05:54:33;;;;;;;;;;;;;;;19.61;41.37;101387.63;2084852;28;2535;-64
2024/01/25 05:56:01;;;;;;;;;;;;;;;19.60;41.50;101380.38;2082978;28;2336;-63
2024/01/25 05:57:27;;;;;;;;;;;;;;;19.60;41.37;101386.13;2082288;28;2389;-65
2024/01/25 05:58:54;;;;;;;;;;;;;;;19.59;41.38;101378.88;2082094;28;2107;-64
2024/01/25 06:00:21;;;;;;;;;;;;;;;19.58;41.38;101380.25;2085876;28;6302;-64
2024/01/25 06:01:48;;;;;;;;;;;;;;;19.59;41.40;101384.63;2085587;28;2130;-64
2024/01/25 06:03:15;;;;;;;;;;;;;;;19.58;41.47;101388.88;2085816;28;1716;-63
2024/01/25 06:04:42;;;;;;;;;;;;;;;19.58;41.50;101365.88;2083863;28;2326;-64
2024/01/25 06:06:09;;;;;;;;;;;;;;;19.56;41.54;101371.53;2082942;28;2292;-64
2024/01/25 06:07:36;;;;;;;;;;;;;;;19.57;41.47;101370.16;2084141;28;2412;-63
2024/01/25 06:09:05;;;;;;;;;;;;;;;19.56;41.54;101362.94;2084326;28;2344;-64
2024/01/25 06:10:39;;;;;;;;;;;;;;;19.57;41.61;101378.78;2084245;28;2282;-64
2024/01/25 06:12:06;;;;;;;;;;;;;;;19.56;41.50;101365.78;2087588;28;1657;-64
2024/01/25 06:13:33;;;;;;;;;;;;;;;19.57;41.44;101370.16;2087640;28;1572;-63
2024/01/25 06:15:00;;;;;;;;;;;;;;;19.58;41.44;101380.25;2084664;28;2172;-64
2024/01/25 06:16:27;;;;;;;;;;;;;;;19.60;41.42;101389.00;2083333;28;2132;-64
2024/01/25 06:17:54;;;;;;;;;;;;;;;19.58;41.46;101403.25;2080275;28;2359;-63
2024/01/25 06:19:21;;;;;;;;;;;;;;;19.65;41.67;101393.63;2083330;28;2222;-62
2024/01/25 06:20:48;;;;;;;;;;;;;;;19.66;41.51;101403.72;2084789;28;2360;-62
2024/01/25 06:22:16;;;;;;;;;;;;;;;19.64;41.59;101399.97;2083983;28;2266;-62
2024/01/25 06:23:43;;;;;;;;;;;;;;;19.30;41.15;101381.47;2079824;28;2533;-67
2024/01/25 06:25:11;;;;;;;;;;;;;;;19.29;41.46;101392.22;2080022;28;3990;-70
2024/01/25 06:26:37;;;;;;;;;;;;;;;19.41;40.92;101395.06;2081883;28;2658;-67
2024/01/25 06:28:04;;;;;;;;;;;;;;;19.52;41.26;101402.16;2084712;28;2704;-66
2024/01/25 06:29:31;;;;;;;;;;;;;;;19.84;41.94;101397.56;2081398;28;3516;-70
2024/01/25 06:31:00;;;;;;;;;;;;;;;20.08;41.84;101403.94;2081833;28;6019;-69
2024/01/25 06:32:27;;;;;;;;;;;;;;;20.19;41.40;101388.00;2082113;28;2643;-69